Time;durP1;ratioP1;P1;durP2;ratioP2;P2;SDS_P1;SDS_P2;PMS_P1;PMS_P2;Temp;Humidity;BMP_temperature;BMP_pressure;BME280_temperature;BME280_humidity;BME280_pressure;Samples;Min_cycle;Max_cycle;Signal;HPM_P1;HPM_P2
2021/06/26 00:00:01;;;;;;;4.57;4.10;;;19.70;1.00;;;;;;4963015;28;20460;-79
2021/06/26 00:02:29;;;;;;;5.23;4.73;;;19.70;1.00;;;;;;4976691;28;20533;-79
2021/06/26 00:04:57;;;;;;;5.73;4.80;;;19.70;1.00;;;;;;4972277;28;20459;-78
2021/06/26 00:07:25;;;;;;;7.10;4.60;;;19.70;1.00;;;;;;4974551;28;20455;-80
2021/06/26 00:09:55;;;;;;;5.70;5.10;;;19.60;1.00;;;;;;4971509;28;20510;-79
2021/06/26 00:12:23;;;;;;;6.97;5.07;;;19.60;13.60;;;;;;4972778;28;20517;-78
2021/06/26 00:14:51;;;;;;;5.17;4.40;;;19.60;36.30;;;;;;4969767;28;20459;-80
2021/06/26 00:17:20;;;;;;;7.43;5.70;;;19.60;21.70;;;;;;4971779;28;20463;-78
2021/06/26 00:19:48;;;;;;;6.47;5.83;;;19.60;5.30;;;;;;4974118;28;20450;-78
2021/06/26 00:22:16;;;;;;;6.30;5.50;;;19.60;1.00;;;;;;4972858;28;20475;-79
2021/06/26 00:24:44;;;;;;;5.47;4.97;;;19.60;17.90;;;;;;4972156;28;20475;-80
2021/06/26 00:27:14;;;;;;;5.90;5.30;;;19.60;1.00;;;;;;4972864;28;20483;-79
2021/06/26 00:29:42;;;;;;;8.57;5.13;;;19.60;1.00;;;;;;4971841;28;20457;-80
2021/06/26 00:32:10;;;;;;;5.17;4.67;;;19.60;1.00;;;;;;4969612;28;20865;-79
2021/06/26 00:34:39;;;;;;;4.90;4.40;;;19.60;26.10;;;;;;4973285;28;21120;-80
2021/06/26 00:37:07;;;;;;;4.57;4.20;;;19.50;47.00;;;;;;4971322;28;21163;-79
2021/06/26 00:39:35;;;;;;;4.40;4.00;;;19.60;73.60;;;;;;4961473;28;20462;-78
2021/06/26 00:42:04;;;;;;;5.03;4.53;;;19.60;70.60;;;;;;4976124;28;20479;-79
2021/06/26 00:44:33;;;;;;;6.80;4.93;;;19.50;90.00;;;;;;4972247;28;20459;-79
2021/06/26 00:47:02;;;;;;;5.00;4.57;;;19.50;95.30;;;;;;4972409;28;20471;-78
2021/06/26 00:49:31;;;;;;;4.93;4.30;;;19.50;62.10;;;;;;4986631;28;20546;-78
2021/06/26 00:52:00;;;;;;;4.37;3.97;;;19.50;96.60;;;;;;4972514;28;20506;-79
2021/06/26 00:54:28;;;;;;;6.30;5.80;;;19.40;99.90;;;;;;4970896;28;20518;-78
2021/06/26 00:56:57;;;;;;;7.17;5.37;;;19.30;99.90;;;;;;4971580;28;21162;-78
2021/06/26 00:59:25;;;;;;;5.87;5.27;;;19.30;99.90;;;;;;4972803;28;20442;-79
2021/06/26 01:01:55;;;;;;;5.80;5.20;;;19.40;99.90;;;;;;4974332;28;20562;-79
2021/06/26 01:04:23;;;;;;;6.43;5.83;;;19.40;99.90;;;;;;4967112;28;20465;-79
2021/06/26 01:06:51;;;;;;;5.73;4.83;;;19.40;99.90;;;;;;4972910;28;20829;-78
2021/06/26 01:09:20;;;;;;;5.83;4.67;;;19.40;99.90;;;;;;4965383;28;20456;-79
2021/06/26 01:11:48;;;;;;;4.53;4.00;;;19.40;99.90;;;;;;4970906;28;20838;-79
2021/06/26 01:14:16;;;;;;;6.13;5.60;;;19.30;99.90;;;;;;4970255;28;20460;-79
2021/06/26 01:16:44;;;;;;;6.00;5.40;;;19.40;99.90;;;;;;4973625;28;20521;-78
2021/06/26 01:19:14;;;;;;;6.20;5.60;;;19.50;99.90;;;;;;4969569;28;20467;-79
2021/06/26 01:21:42;;;;;;;5.37;4.93;;;19.50;99.90;;;;;;4970630;28;20545;-77
2021/06/26 01:24:12;;;;;;;6.60;5.30;;;19.50;99.90;;;;;;4973364;28;20451;-79
2021/06/26 01:26:40;;;;;;;7.70;6.60;;;19.40;99.90;;;;;;4971045;28;20482;-78
2021/06/26 01:29:10;;;;;;;7.80;5.70;;;19.40;99.90;;;;;;4970768;28;20506;-78
2021/06/26 01:31:38;;;;;;;5.60;5.07;;;19.40;99.90;;;;;;4978658;28;20498;-78
2021/06/26 01:34:07;;;;;;;6.93;5.97;;;19.40;99.90;;;;;;4967418;28;20513;-78
2021/06/26 01:36:35;;;;;;;6.90;5.73;;;19.40;99.90;;;;;;4967875;28;20597;-78
2021/06/26 01:39:03;;;;;;;5.93;5.37;;;19.40;99.90;;;;;;4970679;28;21016;-79
2021/06/26 01:41:33;;;;;;;6.37;5.40;;;19.50;99.90;;;;;;4972606;28;20530;-79
2021/06/26 01:44:02;;;;;;;9.10;5.90;;;19.40;99.90;;;;;;4970285;28;20469;-78
2021/06/26 01:46:31;;;;;;;5.57;4.93;;;19.40;99.90;;;;;;4971231;28;20448;-77
2021/06/26 01:49:07;;;;;;;7.37;5.97;;;19.40;99.90;;;;;;4971102;28;20563;-79
2021/06/26 01:51:36;;;;;;;7.33;5.27;;;19.40;99.90;;;;;;4962982;28;20486;-79
2021/06/26 01:54:05;;;;;;;6.80;5.00;;;19.40;99.90;;;;;;4969986;28;20994;-79
2021/06/26 01:56:36;;;;;;;6.87;6.13;;;19.40;99.90;;;;;;4971212;28;20498;-79
2021/06/26 01:59:05;;;;;;;7.03;6.43;;;19.40;99.90;;;;;;4970761;28;20447;-80
2021/06/26 02:01:34;;;;;;;5.70;5.20;;;19.40;99.90;;;;;;4970421;28;20897;-79
2021/06/26 02:04:04;;;;;;;6.00;4.50;;;19.30;99.90;;;;;;4970573;28;20450;-79
2021/06/26 02:06:32;;;;;;;7.90;5.80;;;19.20;99.90;;;;;;4970084;28;20462;-77
2021/06/26 02:09:01;;;;;;;6.67;6.07;;;19.30;1.00;;;;;;4958727;28;20517;-80
2021/06/26 02:11:29;;;;;;;7.20;5.97;;;19.30;99.90;;;;;;4967610;28;20480;-79
2021/06/26 02:13:59;;;;;;;7.70;5.90;;;19.40;99.90;;;;;;4971249;28;20446;-78
2021/06/26 02:16:27;;;;;;;7.27;6.50;;;19.40;99.90;;;;;;4975172;28;20471;-78
2021/06/26 02:18:56;;;;;;;7.47;6.60;;;19.40;99.90;;;;;;4972530;28;20831;-79
2021/06/26 02:21:24;;;;;;;7.00;6.33;;;19.40;99.90;;;;;;4970897;28;20471;-79
2021/06/26 02:23:52;;;;;;;7.80;6.60;;;19.40;99.90;;;;;;4967937;28;20482;-78
2021/06/26 02:26:20;;;;;;;9.53;7.37;;;19.40;99.90;;;;;;4964081;28;20456;-79
2021/06/26 02:28:48;;;;;;;6.90;6.10;;;19.40;99.90;;;;;;4974985;28;20462;-78
2021/06/26 02:31:18;;;;;;;5.87;5.37;;;19.40;99.90;;;;;;4968863;28;20498;-77
2021/06/26 02:33:46;;;;;;;9.37;6.33;;;19.40;99.90;;;;;;4955600;28;21125;-78
2021/06/26 02:36:14;;;;;;;6.03;5.53;;;19.30;1.00;;;;;;4972874;28;20455;-78
2021/06/26 02:38:42;;;;;;;6.10;5.50;;;19.40;1.00;;;;;;4973163;28;20538;-80
2021/06/26 02:41:10;;;;;;;6.60;5.90;;;19.40;1.00;;;;;;4972579;28;20510;-78
2021/06/26 02:43:39;;;;;;;11.80;6.90;;;19.40;1.00;;;;;;4975447;28;20521;-78
2021/06/26 02:46:07;;;;;;;6.20;5.70;;;19.40;1.00;;;;;;4960614;28;20517;-79
2021/06/26 02:48:36;;;;;;;26.87;12.40;;;19.40;1.00;;;;;;4972839;28;20463;-79
2021/06/26 02:51:05;;;;;;;8.93;7.80;;;19.30;20.20;;;;;;4976686;28;20829;-78
2021/06/26 02:53:33;;;;;;;8.13;6.47;;;19.30;1.00;;;;;;4966291;28;21021;-78
2021/06/26 02:56:01;;;;;;;9.03;6.03;;;19.30;1.00;;;;;;4971167;28;20461;-79
2021/06/26 02:58:29;;;;;;;10.57;6.50;;;19.30;1.00;;;;;;4972187;28;21018;-79
2021/06/26 03:00:58;;;;;;;8.03;5.87;;;19.30;1.00;;;;;;4968073;28;20479;-79
2021/06/26 03:03:26;;;;;;;7.37;5.80;;;19.30;1.00;;;;;;4972207;28;20459;-78
2021/06/26 03:05:55;;;;;;;5.73;5.20;;;19.10;99.90;;;;;;4970820;28;20447;-80
2021/06/26 03:08:24;;;;;;;6.60;5.90;;;19.10;99.90;;;;;;4971857;28;20462;-80
2021/06/26 03:10:52;;;;;;;7.57;6.77;;;19.10;99.90;;;;;;4970789;28;20533;-79
2021/06/26 03:13:20;;;;;;;6.07;5.47;;;19.10;10.70;;;;;;4974775;28;20477;-79
2021/06/26 03:15:48;;;;;;;5.20;4.67;;;19.10;1.00;;;;;;4974200;28;20462;-79
2021/06/26 03:18:16;;;;;;;5.53;5.03;;;19.10;1.00;;;;;;4973340;28;20474;-76
2021/06/26 03:20:44;;;;;;;6.60;5.30;;;19.10;1.00;;;;;;4972581;28;20440;-78
2021/06/26 03:23:14;;;;;;;8.37;5.70;;;19.10;1.00;;;;;;4971888;28;20452;-79
2021/06/26 03:25:42;;;;;;;8.17;5.80;;;19.10;1.00;;;;;;4973412;28;20505;-78
2021/06/26 03:28:10;;;;;;;6.90;6.20;;;19.10;1.00;;;;;;4973605;28;20447;-78
2021/06/26 03:30:39;;;;;;;6.87;6.27;;;19.10;1.00;;;;;;4970632;28;20463;-78
2021/06/26 03:33:07;;;;;;;6.13;5.07;;;19.00;1.00;;;;;;4972751;28;21002;-79
2021/06/26 03:35:35;;;;;;;5.90;5.40;;;19.00;1.00;;;;;;4972946;28;20530;-79
2021/06/26 03:38:03;;;;;;;6.30;5.70;;;19.00;1.00;;;;;;4959601;28;20468;-79
2021/06/26 03:40:33;;;;;;;6.27;5.67;;;19.00;1.00;;;;;;4962635;28;20826;-78
2021/06/26 03:43:02;;;;;;;7.33;6.63;;;19.00;1.00;;;;;;4971660;28;20448;-80
2021/06/26 03:45:30;;;;;;;7.37;5.90;;;19.00;1.00;;;;;;4972303;28;20453;-78
2021/06/26 03:47:59;;;;;;;6.30;5.70;;;19.00;1.00;;;;;;4966619;28;20470;-79
2021/06/26 03:50:27;;;;;;;8.67;5.93;;;19.00;1.00;;;;;;4972651;28;20500;-79
2021/06/26 03:52:56;;;;;;;7.90;6.20;;;18.90;1.00;;;;;;4971481;28;20543;-80
2021/06/26 03:55:25;;;;;;;10.30;6.70;;;18.90;1.00;;;;;;4969299;28;20466;-67
2021/06/26 03:57:54;;;;;;;7.00;6.30;;;18.90;99.90;;;;;;4967943;28;20467;-67
2021/06/26 04:00:23;;;;;;;8.80;7.30;;;18.60;1.00;;;;;;4965664;28;20462;-67
2021/06/26 04:02:51;;;;;;;7.43;6.67;;;18.40;99.90;;;;;;4967133;28;20548;-68
2021/06/26 04:05:19;;;;;;;7.63;6.73;;;18.30;99.90;;;;;;4969023;28;20459;-67
2021/06/26 04:07:48;;;;;;;10.00;6.10;;;18.30;1.00;;;;;;4970137;28;20457;-68
2021/06/26 04:10:16;;;;;;;6.10;5.50;;;18.30;1.00;;;;;;4971694;28;20454;-68
2021/06/26 04:12:44;;;;;;;6.30;5.70;;;18.30;1.00;;;;;;4969482;28;20486;-68
2021/06/26 04:15:14;;;;;;;6.73;6.13;;;18.30;1.00;;;;;;4969585;28;20447;-68
2021/06/26 04:17:42;;;;;;;8.38;7.40;;;18.20;99.90;;;;;;4970205;28;20453;-77
2021/06/26 04:20:11;;;;;;;7.67;6.87;;;18.20;1.00;;;;;;4972831;28;20258;-80
2021/06/26 04:22:39;;;;;;;6.90;6.20;;;18.40;99.90;;;;;;4972588;28;20474;-78
2021/06/26 04:25:08;;;;;;;7.40;6.60;;;18.50;1.00;;;;;;4966104;28;20555;-78
2021/06/26 04:27:36;;;;;;;7.83;6.20;;;18.60;1.00;;;;;;4970707;28;20450;-78
2021/06/26 04:30:06;;;;;;;7.10;6.40;;;18.70;99.90;;;;;;4971837;28;20451;-79
2021/06/26 04:32:36;;;;;;;8.20;6.73;;;18.80;99.90;;;;;;4986691;28;21036;-79
2021/06/26 04:35:06;;;;;;;8.13;6.40;;;18.80;22.50;;;;;;4992079;28;20435;-79
2021/06/26 04:37:34;;;;;;;9.90;6.53;;;18.80;12.80;;;;;;4991678;28;20477;-79
2021/06/26 04:40:03;;;;;;;10.50;7.00;;;18.90;1.00;;;;;;4992907;28;21167;-79
2021/06/26 04:42:31;;;;;;;6.77;6.17;;;18.90;1.00;;;;;;4992733;28;20461;-78
2021/06/26 04:44:59;;;;;;;10.43;7.73;;;18.80;1.00;;;;;;4992137;28;20429;-79
2021/06/26 04:47:28;;;;;;;8.17;7.37;;;18.80;93.60;;;;;;4991275;28;20985;-79
2021/06/26 04:49:57;;;;;;;9.23;8.20;;;18.70;86.10;;;;;;4992874;28;20970;-79
2021/06/26 04:52:25;;;;;;;7.60;6.80;;;18.80;3.10;;;;;;4992547;28;20474;-79
2021/06/26 04:54:53;;;;;;;7.90;7.10;;;18.80;1.00;;;;;;4991533;28;20454;-79
2021/06/26 04:57:21;;;;;;;8.20;6.63;;;18.80;1.00;;;;;;4972113;28;20448;-79
2021/06/26 04:59:50;;;;;;;6.73;6.13;;;18.90;1.00;;;;;;4973613;28;20435;-79
2021/06/26 05:02:18;;;;;;;8.47;6.60;;;18.90;1.00;;;;;;4972985;28;20471;-79
2021/06/26 05:04:46;;;;;;;7.90;7.20;;;18.90;1.00;;;;;;4972297;28;20959;-79
2021/06/26 05:07:16;;;;;;;9.47;6.63;;;19.00;1.00;;;;;;4972317;28;20447;-80
2021/06/26 05:09:44;;;;;;;7.70;6.90;;;18.90;1.00;;;;;;4973492;28;20440;-80
2021/06/26 05:12:12;;;;;;;8.87;7.40;;;18.90;1.00;;;;;;4972783;28;20475;-79
2021/06/26 05:14:40;;;;;;;8.70;6.73;;;18.80;1.00;;;;;;4973214;28;20511;-79
2021/06/26 05:17:09;;;;;;;8.20;7.07;;;18.80;1.00;;;;;;4971515;28;20478;-77
2021/06/26 05:19:37;;;;;;;8.57;7.07;;;18.90;1.00;;;;;;4973168;28;20486;-78
2021/06/26 05:22:05;;;;;;;9.60;7.83;;;19.00;1.00;;;;;;4973215;28;20518;-79
2021/06/26 05:24:35;;;;;;;8.10;7.30;;;19.00;1.00;;;;;;4978308;28;20509;-78
2021/06/26 05:27:03;;;;;;;8.37;6.83;;;19.00;1.00;;;;;;4983837;28;20451;-78
2021/06/26 05:29:31;;;;;;;7.80;6.93;;;19.00;1.00;;;;;;4984810;28;20455;-76
2021/06/26 05:31:59;;;;;;;9.10;7.30;;;19.10;1.00;;;;;;4972726;28;20471;-79
2021/06/26 05:34:28;;;;;;;9.60;7.90;;;19.20;1.00;;;;;;4970652;28;20447;-80
2021/06/26 05:36:56;;;;;;;10.30;9.13;;;19.10;52.50;;;;;;4972826;28;20444;-79
2021/06/26 05:39:24;;;;;;;11.67;8.37;;;19.10;1.00;;;;;;4979927;28;20463;-79
2021/06/26 05:41:53;;;;;;;11.73;9.00;;;19.20;1.00;;;;;;4983136;28;20512;-79
2021/06/26 05:44:21;;;;;;;13.30;9.33;;;19.20;1.00;;;;;;4984829;28;20509;-78
2021/06/26 05:46:53;;;;;;;12.00;8.80;;;19.30;10.30;;;;;;4992558;28;20819;-79
2021/06/26 05:49:21;;;;;;;10.70;9.00;;;19.30;99.90;;;;;;4992105;28;20453;-80
2021/06/26 05:51:49;;;;;;;14.80;10.80;;;19.30;1.00;;;;;;5006885;28;20459;-79
2021/06/26 05:54:17;;;;;;;15.03;9.57;;;19.40;1.00;;;;;;4991227;28;20876;-79
2021/06/26 05:56:45;;;;;;;9.93;8.77;;;19.40;99.90;;;;;;4992080;28;20509;-79
2021/06/26 05:59:15;;;;;;;11.33;9.33;;;19.50;1.00;;;;;;4973646;28;20501;-80
2021/06/26 06:01:43;;;;;;;10.20;9.03;;;19.50;99.90;;;;;;4971522;28;21040;-80
2021/06/26 06:04:12;;;;;;;12.17;8.87;;;19.60;99.90;;;;;;4972769;28;20990;-79
2021/06/26 06:06:40;;;;;;;13.37;9.40;;;19.70;1.00;;;;;;4971783;28;20455;-79
2021/06/26 06:09:08;;;;;;;11.53;10.33;;;19.70;1.00;;;;;;4976264;28;20447;-79
2021/06/26 06:11:36;;;;;;;12.27;9.50;;;19.70;99.90;;;;;;4976530;28;20524;-79
2021/06/26 06:14:04;;;;;;;15.20;10.97;;;19.80;99.90;;;;;;4976543;28;20975;-79
2021/06/26 06:16:35;;;;;;;11.50;9.90;;;19.80;99.90;;;;;;4975303;28;20513;-79
2021/06/26 06:19:04;;;;;;;9.93;8.87;;;19.80;99.90;;;;;;4976081;28;20549;-80
2021/06/26 06:21:32;;;;;;;10.27;9.20;;;19.90;99.90;;;;;;4976603;28;20986;-79
2021/06/26 06:24:00;;;;;;;12.87;10.70;;;19.90;99.90;;;;;;4975023;28;20466;-80
2021/06/26 06:26:28;;;;;;;12.00;10.00;;;20.00;99.90;;;;;;4974991;28;20447;-80
2021/06/26 06:28:57;;;;;;;11.73;9.70;;;20.00;99.90;;;;;;4974598;28;20447;-79
2021/06/26 06:31:25;;;;;;;14.40;9.30;;;20.00;99.90;;;;;;4982691;28;20478;-78
2021/06/26 06:33:55;;;;;;;12.13;9.80;;;20.00;99.90;;;;;;4994312;28;20438;-79
2021/06/26 06:36:23;;;;;;;11.50;9.40;;;20.10;1.00;;;;;;4995806;28;20458;-79
2021/06/26 06:38:51;;;;;;;13.33;9.70;;;20.20;1.00;;;;;;4979106;28;20549;-79
2021/06/26 06:41:19;;;;;;;11.53;9.70;;;20.10;1.00;;;;;;4976525;28;20463;-80
2021/06/26 06:43:47;;;;;;;11.27;9.73;;;20.10;1.00;;;;;;4975578;28;20468;-78
2021/06/26 06:46:15;;;;;;;17.40;10.10;;;20.20;1.00;;;;;;4986075;28;20454;-79
2021/06/26 06:48:43;;;;;;;13.07;11.37;;;20.20;92.80;;;;;;4993853;28;20475;-79
2021/06/26 06:51:13;;;;;;;13.10;10.30;;;20.20;99.90;;;;;;4994219;28;20528;-79
2021/06/26 06:53:41;;;;;;;11.03;9.50;;;20.30;99.90;;;;;;4994112;28;20456;-80
2021/06/26 06:56:09;;;;;;;14.33;10.83;;;20.30;1.00;;;;;;4975060;28;20844;-80
2021/06/26 06:58:37;;;;;;;9.37;8.00;;;20.40;1.00;;;;;;4975117;28;21030;-78
2021/06/26 07:01:05;;;;;;;11.07;9.47;;;20.50;1.00;;;;;;4975859;28;20463;-79
2021/06/26 07:03:33;;;;;;;10.50;9.40;;;20.50;1.00;;;;;;4976161;28;20444;-80
2021/06/26 07:06:02;;;;;;;12.43;10.60;;;20.50;1.00;;;;;;4975828;28;20447;-79
2021/06/26 07:08:31;;;;;;;14.77;9.80;;;20.70;99.90;;;;;;4973953;28;20451;-79
2021/06/26 07:11:01;;;;;;;13.50;8.57;;;20.70;1.00;;;;;;4974074;28;20467;-80
2021/06/26 07:13:29;;;;;;;12.47;9.30;;;20.80;14.30;;;;;;4981255;28;20470;-79
2021/06/26 07:15:57;;;;;;;10.30;8.60;;;20.90;1.00;;;;;;4994056;28;20966;-80
2021/06/26 07:18:26;;;;;;;12.23;8.90;;;20.90;1.00;;;;;;4975093;28;20440;-78
2021/06/26 07:20:54;;;;;;;10.77;8.33;;;20.90;1.00;;;;;;4977385;28;20503;-79
2021/06/26 07:23:22;;;;;;;9.67;8.10;;;21.00;1.00;;;;;;4977988;28;20474;-79
2021/06/26 07:25:52;;;;;;;11.10;8.90;;;21.00;1.00;;;;;;4978812;28;20449;-79
2021/06/26 07:28:20;;;;;;;10.50;7.90;;;21.00;1.00;;;;;;4977911;28;21053;-80
2021/06/26 07:30:48;;;;;;;11.70;9.77;;;21.00;1.00;;;;;;4979603;28;20559;-79
2021/06/26 07:33:16;;;;;;;10.50;9.00;;;21.00;1.00;;;;;;4977432;28;20457;-80
2021/06/26 07:35:44;;;;;;;11.87;9.60;;;21.10;1.00;;;;;;4977954;28;20460;-79
2021/06/26 07:38:12;;;;;;;12.27;9.33;;;21.10;1.00;;;;;;4977857;28;20858;-79
2021/06/26 07:40:41;;;;;;;10.30;8.73;;;21.10;99.90;;;;;;4978082;28;20490;-79
2021/06/26 07:43:11;;;;;;;9.97;8.10;;;21.20;99.90;;;;;;4978033;28;20523;-79
2021/06/26 07:45:39;;;;;;;11.13;8.73;;;21.20;99.90;;;;;;4979303;28;20463;-79
2021/06/26 07:48:08;;;;;;;9.60;8.70;;;21.30;99.90;;;;;;4977885;28;20474;-79
2021/06/26 07:50:36;;;;;;;9.73;8.73;;;21.30;99.90;;;;;;4979401;28;20439;-79
2021/06/26 07:53:04;;;;;;;7.73;6.53;;;21.30;99.90;;;;;;4977597;28;20443;-78
2021/06/26 07:55:34;;;;;;;9.27;6.40;;;21.40;99.90;;;;;;4979474;28;20490;-77
2021/06/26 07:58:03;;;;;;;8.00;6.97;;;21.40;99.90;;;;;;4977738;28;20913;-79
2021/06/26 08:00:32;;;;;;;8.00;5.90;;;21.50;99.90;;;;;;4973701;28;20470;-78
2021/06/26 08:03:00;;;;;;;7.87;6.53;;;21.50;99.90;;;;;;4979008;28;20505;-79
2021/06/26 08:05:29;;;;;;;6.70;6.07;;;21.50;99.90;;;;;;4977687;28;20457;-79
2021/06/26 08:07:57;;;;;;;9.07;6.43;;;21.60;99.90;;;;;;4978146;28;20490;-79
2021/06/26 08:10:25;;;;;;;8.53;6.60;;;21.70;99.90;;;;;;4978674;28;20481;-79
2021/06/26 08:12:54;;;;;;;7.30;6.60;;;21.70;1.00;;;;;;4977912;28;20893;-79
2021/06/26 08:15:22;;;;;;;6.40;5.70;;;21.70;1.00;;;;;;4978620;28;20434;-79
2021/06/26 08:17:51;;;;;;;9.17;6.20;;;21.70;1.00;;;;;;4978543;28;20457;-79
2021/06/26 08:20:20;;;;;;;7.57;6.20;;;21.70;1.00;;;;;;4976108;28;21003;-78
2021/06/26 08:22:48;;;;;;;8.70;7.27;;;21.80;1.00;;;;;;4976705;28;20458;-78
2021/06/26 08:25:16;;;;;;;7.53;6.37;;;21.80;1.00;;;;;;4973982;28;20944;-79
2021/06/26 08:27:44;;;;;;;7.00;6.40;;;21.80;1.00;;;;;;4972417;28;20447;-79
2021/06/26 08:30:13;;;;;;;9.07;6.23;;;21.90;1.00;;;;;;4973468;28;20982;-78
2021/06/26 08:32:43;;;;;;;6.20;4.83;;;21.90;1.00;;;;;;4985052;28;21042;-79
2021/06/26 08:35:13;;;;;;;6.67;5.97;;;21.90;1.00;;;;;;4973080;28;20442;-79
2021/06/26 08:37:44;;;;;;;8.90;6.80;;;22.00;1.00;;;;;;4972735;28;20952;-78
2021/06/26 08:40:14;;;;;;;6.33;5.73;;;22.00;1.00;;;;;;4973610;28;20474;-79
2021/06/26 08:42:43;;;;;;;7.57;6.30;;;22.10;1.00;;;;;;4973029;28;20530;-79
2021/06/26 08:45:15;;;;;;;6.40;5.80;;;22.00;1.00;;;;;;4972847;28;20453;-78
2021/06/26 08:47:43;;;;;;;5.63;5.13;;;22.00;99.90;;;;;;4971357;28;20454;-79
2021/06/26 08:50:14;;;;;;;7.27;6.50;;;22.00;99.90;;;;;;4971280;28;20827;-78
2021/06/26 08:52:43;;;;;;;8.03;6.00;;;22.10;99.90;;;;;;4973193;28;20470;-78
2021/06/26 08:55:12;;;;;;;8.00;5.70;;;22.10;99.90;;;;;;4953607;29;20458;-78
2021/06/26 08:57:41;;;;;;;6.50;5.20;;;22.00;99.90;;;;;;4952837;29;20460;-79
2021/06/26 09:00:11;;;;;;;7.40;5.77;;;22.10;1.00;;;;;;4959113;28;20520;-78
2021/06/26 09:02:40;;;;;;;6.57;5.97;;;22.20;1.00;;;;;;4973234;28;20463;-79
2021/06/26 09:05:09;;;;;;;6.07;5.50;;;22.10;1.00;;;;;;4972760;28;20482;-79
2021/06/26 09:07:40;;;;;;;6.33;5.70;;;22.20;1.00;;;;;;4973359;28;20450;-79
2021/06/26 09:10:13;;;;;;;7.50;6.00;;;22.20;1.00;;;;;;4972335;28;20513;-79
2021/06/26 09:12:42;;;;;;;7.07;6.50;;;22.20;1.00;;;;;;4972975;28;20876;-78
2021/06/26 09:15:20;;;;;;;8.03;6.90;;;22.30;1.00;;;;;;4972296;28;20447;-78
2021/06/26 09:17:49;;;;;;;7.33;6.63;;;22.30;1.00;;;;;;4972991;28;20480;-79
2021/06/26 09:20:17;;;;;;;6.70;6.10;;;22.20;1.00;;;;;;4970729;28;20529;-80
2021/06/26 09:22:50;;;;;;;6.27;5.70;;;22.30;1.00;;;;;;4971676;28;20536;-78
2021/06/26 09:25:30;;;;;;;7.50;6.80;;;22.30;1.00;;;;;;4972811;28;20459;-79
2021/06/26 09:28:00;;;;;;;6.40;5.80;;;22.40;1.00;;;;;;4973348;28;20459;-79
2021/06/26 09:30:37;;;;;;;7.40;6.40;;;22.50;1.00;;;;;;4972536;28;20516;-78
2021/06/26 09:33:13;;;;;;;7.00;6.30;;;22.50;99.90;;;;;;4952242;29;20535;-78
2021/06/26 09:35:43;;;;;;;6.37;5.87;;;22.60;1.00;;;;;;4952091;29;20509;-79
2021/06/26 09:38:13;;;;;;;6.47;5.80;;;22.60;1.00;;;;;;4953510;28;20448;-76
2021/06/26 09:40:43;;;;;;;6.10;5.50;;;22.60;99.90;;;;;;4952037;29;20836;-79
2021/06/26 09:43:25;;;;;;;6.33;5.83;;;22.70;99.90;;;;;;4957222;28;20959;-79
2021/06/26 09:46:05;;;;;;;7.40;6.03;;;22.70;99.90;;;;;;4975704;28;20505;-79
2021/06/26 09:48:34;;;;;;;6.30;5.80;;;22.80;99.90;;;;;;4983464;28;20469;-78
2021/06/26 09:51:02;;;;;;;6.97;6.23;;;22.80;99.90;;;;;;4990485;28;20457;-78
2021/06/26 09:53:31;;;;;;;6.00;5.50;;;22.80;99.90;;;;;;4998658;28;20504;-79
2021/06/26 09:55:59;;;;;;;7.50;5.90;;;22.80;99.90;;;;;;4998592;28;20914;-78
2021/06/26 09:58:28;;;;;;;7.60;6.17;;;22.90;99.90;;;;;;4998337;28;20520;-78
2021/06/26 10:00:57;;;;;;;6.33;5.70;;;23.00;99.90;;;;;;4980001;28;20549;-78
2021/06/26 10:03:27;;;;;;;6.63;6.13;;;23.00;99.90;;;;;;4978576;28;20443;-79
2021/06/26 10:05:56;;;;;;;7.30;6.70;;;23.10;1.00;;;;;;4979353;28;20455;-78
2021/06/26 10:08:24;;;;;;;6.77;6.17;;;23.10;99.90;;;;;;4978390;28;20443;-78
2021/06/26 10:10:59;;;;;;;6.20;5.60;;;23.20;99.90;;;;;;4979064;28;20505;-80
2021/06/26 10:13:28;;;;;;;6.63;6.00;;;23.10;99.90;;;;;;4978623;28;20453;-79
2021/06/26 10:15:57;;;;;;;6.57;5.83;;;23.20;99.90;;;;;;4978948;28;20435;-79
2021/06/26 10:18:27;;;;;;;5.07;4.67;;;23.20;99.90;;;;;;4978153;28;20517;-80
2021/06/26 10:20:56;;;;;;;6.27;5.77;;;23.30;99.90;;;;;;4978591;28;20478;-79
2021/06/26 10:23:24;;;;;;;5.57;5.13;;;23.30;99.90;;;;;;4977920;28;20451;-79
2021/06/26 10:25:59;;;;;;;6.03;5.53;;;23.30;99.90;;;;;;4977363;28;20447;-80
2021/06/26 10:28:27;;;;;;;5.53;5.03;;;23.40;99.90;;;;;;4977950;28;20446;-79
2021/06/26 10:31:01;;;;;;;6.63;5.40;;;23.30;99.90;;;;;;4978424;28;20474;-78
2021/06/26 10:33:31;;;;;;;5.80;5.37;;;23.30;99.90;;;;;;4977825;28;20443;-80
2021/06/26 10:36:01;;;;;;;8.43;4.73;;;23.20;99.90;;;;;;4978802;28;20571;-80
2021/06/26 10:38:40;;;;;;;6.20;5.50;;;23.20;99.90;;;;;;4978173;28;20451;-80
2021/06/26 10:41:18;;;;;;;5.30;4.83;;;23.30;99.90;;;;;;4978659;28;20486;-79
2021/06/26 10:43:57;;;;;;;6.00;5.23;;;23.30;99.90;;;;;;4978390;28;20537;-79
2021/06/26 10:46:25;;;;;;;5.90;5.30;;;23.40;99.90;;;;;;4978650;28;20478;-78
2021/06/26 10:49:01;;;;;;;5.50;5.00;;;23.40;99.90;;;;;;4976563;28;20820;-79
2021/06/26 10:51:34;;;;;;;5.80;4.80;;;23.40;99.90;;;;;;4977457;28;20466;-78
2021/06/26 10:54:22;;;;;;;5.10;4.60;;;23.30;99.90;;;;;;4977315;28;20458;-79
2021/06/26 10:57:04;;;;;;;6.50;5.90;;;23.40;99.90;;;;;;4974912;28;20435;-79
2021/06/26 10:59:32;;;;;;;4.47;4.00;;;23.40;99.90;;;;;;4975363;28;20430;-78
2021/06/26 11:02:03;;;;;;;5.17;4.67;;;23.40;99.90;;;;;;4973393;28;20549;-78
2021/06/26 11:04:33;;;;;;;5.00;4.57;;;23.40;99.90;;;;;;4975467;28;20490;-76
2021/06/26 11:07:06;;;;;;;4.30;4.00;;;23.40;99.90;;;;;;4974729;28;20526;-79
2021/06/26 11:09:36;;;;;;;5.17;4.63;;;23.40;99.90;;;;;;4973672;28;20465;-78
2021/06/26 11:12:14;;;;;;;5.00;4.60;;;23.30;99.90;;;;;;4974693;28;20459;-79
2021/06/26 11:14:50;;;;;;;5.67;5.17;;;23.40;99.90;;;;;;4974030;28;20545;-78
2021/06/26 11:17:21;;;;;;;5.20;4.80;;;23.50;99.90;;;;;;4974670;28;20449;-79
2021/06/26 11:19:50;;;;;;;5.63;5.20;;;23.40;99.90;;;;;;4974675;28;20534;-79
2021/06/26 11:22:18;;;;;;;4.20;3.90;;;23.40;99.90;;;;;;4974961;28;20478;-79
2021/06/26 11:25:01;;;;;;;6.27;4.70;;;23.50;99.90;;;;;;4974637;28;20447;-78
2021/06/26 11:27:30;;;;;;;4.77;4.27;;;23.60;99.90;;;;;;4973288;28;20477;-79
2021/06/26 11:30:05;;;;;;;4.57;4.20;;;23.60;99.90;;;;;;4974477;28;20447;-80
2021/06/26 11:32:33;;;;;;;3.83;3.60;;;23.60;99.90;;;;;;4974756;28;20471;-78
2021/06/26 11:35:05;;;;;;;5.40;4.23;;;23.60;99.90;;;;;;4972565;28;20455;-79
2021/06/26 11:37:34;;;;;;;5.50;5.10;;;23.60;99.90;;;;;;4973276;28;20573;-79
2021/06/26 11:40:04;;;;;;;4.10;3.80;;;23.70;99.90;;;;;;4977034;28;20514;-78
2021/06/26 11:42:33;;;;;;;4.53;4.13;;;23.70;99.90;;;;;;4974322;28;20494;-79
2021/06/26 11:45:12;;;;;;;5.80;5.40;;;23.80;99.90;;;;;;4974161;28;20471;-77
2021/06/26 11:47:40;;;;;;;3.93;3.63;;;23.70;99.90;;;;;;4973553;28;21193;-79
2021/06/26 11:50:13;;;;;;;4.50;4.10;;;23.80;99.90;;;;;;4972754;28;20991;-79
2021/06/26 11:52:43;;;;;;;4.00;3.60;;;23.70;99.90;;;;;;4972946;28;20463;-79
2021/06/26 11:55:14;;;;;;;4.53;4.00;;;23.70;99.90;;;;;;4972708;28;20454;-80
2021/06/26 11:57:44;;;;;;;5.80;5.20;;;23.70;99.90;;;;;;4961952;28;20508;-79
2021/06/26 12:00:18;;;;;;;4.80;4.40;;;23.80;99.90;;;;;;4970261;28;20463;-79
2021/06/26 12:02:46;;;;;;;6.20;4.23;;;23.80;99.90;;;;;;4973011;28;20486;-79
2021/06/26 12:05:20;;;;;;;4.70;3.93;;;23.90;99.90;;;;;;4973364;28;20451;-79
2021/06/26 12:07:50;;;;;;;4.30;4.00;;;23.80;99.90;;;;;;4973013;28;20527;-79
2021/06/26 12:10:21;;;;;;;4.53;4.13;;;23.80;99.90;;;;;;4973236;28;20502;-78
2021/06/26 12:12:51;;;;;;;4.10;3.70;;;23.90;99.90;;;;;;4974063;28;20466;-78
2021/06/26 12:15:23;;;;;;;3.90;3.60;;;23.90;99.90;;;;;;4973751;28;20443;-79
2021/06/26 12:18:02;;;;;;;3.87;3.57;;;23.90;99.90;;;;;;4973864;28;20459;-79
2021/06/26 12:20:35;;;;;;;3.93;3.63;;;23.90;99.90;;;;;;4973235;28;20462;-79
2021/06/26 12:23:09;;;;;;;4.37;4.07;;;23.90;99.90;;;;;;4972340;28;20492;-78
2021/06/26 12:25:38;;;;;;;3.90;3.60;;;23.90;99.90;;;;;;4973315;28;20455;-78
2021/06/26 12:28:11;;;;;;;3.80;3.50;;;24.00;99.90;;;;;;4972292;28;20463;-78
2021/06/26 12:30:40;;;;;;;3.67;3.37;;;24.00;99.90;;;;;;4973012;28;20459;-80
2021/06/26 12:33:10;;;;;;;3.67;3.33;;;24.00;99.90;;;;;;4971724;28;20461;-79
2021/06/26 12:35:38;;;;;;;3.77;3.50;;;24.00;99.90;;;;;;4973018;28;20498;-79
2021/06/26 12:38:07;;;;;;;4.67;4.10;;;24.00;99.90;;;;;;4973439;28;20817;-78
2021/06/26 12:40:41;;;;;;;4.80;4.40;;;24.00;99.90;;;;;;4972986;28;20436;-76
2021/06/26 12:43:13;;;;;;;4.60;4.20;;;24.00;99.90;;;;;;4973306;28;20478;-79
2021/06/26 12:45:44;;;;;;;4.07;3.77;;;23.90;99.90;;;;;;4971967;28;20451;-78
2021/06/26 12:48:14;;;;;;;3.77;3.40;;;23.90;99.90;;;;;;4972515;28;20502;-79
2021/06/26 12:50:51;;;;;;;4.53;4.13;;;24.00;99.90;;;;;;4973049;28;20458;-78
2021/06/26 12:53:19;;;;;;;4.83;4.43;;;24.00;99.90;;;;;;4953684;28;20476;-78
2021/06/26 12:56:00;;;;;;;4.30;4.00;;;23.90;99.90;;;;;;4953959;28;20455;-78
2021/06/26 12:58:29;;;;;;;4.43;4.13;;;24.00;99.90;;;;;;4951897;29;20501;-78